Time;durP1;ratioP1;P1;durP2;ratioP2;P2;SDS_P1;SDS_P2;PMS_P1;PMS_P2;Temp;Humidity;BMP_temperature;BMP_pressure;BME280_temperature;BME280_humidity;BME280_pressure;Samples;Min_cycle;Max_cycle;Signal;HPM_P1;HPM_P2
2021/11/08 00:00:29;;;;;;;9.30;6.70;;;;;;;6.94;83.19;98807.20;113145;1189;65899;-71
2021/11/08 00:03:13;;;;;;;8.40;6.90;;;;;;;6.94;83.32;98810.19;112675;1190;60354;-72
2021/11/08 00:05:44;;;;;;;9.20;6.80;;;;;;;6.93;83.30;98811.49;113003;1190;60238;-70
2021/11/08 00:08:14;;;;;;;9.40;7.50;;;;;;;6.91;83.39;98810.89;112935;1189;65295;-72
2021/11/08 00:10:41;;;;;;;9.70;7.30;;;;;;;6.89;83.48;98807.48;112962;1189;60513;-71
2021/11/08 00:13:09;;;;;;;9.20;8.20;;;;;;;6.88;83.52;98813.36;112866;1190;65437;-71
2021/11/08 00:20:54;;;;;;;8.70;6.70;;;;;;;6.78;84.12;98820.64;112893;1189;75203;-71
2021/11/08 00:23:23;;;;;;;13.60;8.50;;;;;;;6.75;84.10;98818.13;112620;1190;61989;-69
2021/11/08 00:25:50;;;;;;;9.00;7.10;;;;;;;6.73;84.25;98818.96;112908;1190;65566;-70
2021/11/08 00:28:19;;;;;;;7.70;6.80;;;;;;;6.68;84.38;98824.50;112935;1189;60229;-71
2021/11/08 00:30:48;;;;;;;7.00;6.20;;;;;;;6.65;84.47;98826.11;112856;1190;62100;-70
2021/11/08 00:33:17;;;;;;;7.00;5.60;;;;;;;6.61;84.57;98829.83;112844;1189;66594;-67
2021/11/08 00:35:46;;;;;;;7.50;6.50;;;;;;;6.57;84.70;98833.36;112541;1190;60715;-72
2021/11/08 00:38:14;;;;;;;7.70;6.80;;;;;;;6.54;84.82;98833.53;112916;1189;64467;-70
2021/11/08 00:40:42;;;;;;;10.00;7.80;;;;;;;6.51;84.97;98836.17;113026;1190;60233;-72
2021/11/08 00:43:10;;;;;;;9.60;7.60;;;;;;;6.48;84.89;98837.39;112942;1190;60354;-73
2021/11/08 00:45:36;;;;;;;9.40;7.90;;;;;;;6.45;85.14;98838.63;112556;1189;65566;-71
2021/11/08 00:48:04;;;;;;;9.20;7.10;;;;;;;6.42;85.31;98841.95;112858;1188;60172;-70
2021/11/08 00:50:31;;;;;;;8.20;6.90;;;;;;;6.40;85.42;98843.85;112857;1189;65473;-70
2021/11/08 00:52:59;;;;;;;7.70;6.60;;;;;;;6.38;85.51;98850.64;112897;1189;60201;-71
2021/11/08 00:55:28;;;;;;;9.40;6.70;;;;;;;6.37;85.57;98854.36;112928;1188;60251;-71
2021/11/08 00:57:58;;;;;;;8.00;6.50;;;;;;;6.38;85.66;98853.25;112869;1189;65616;-71
2021/11/08 01:00:27;;;;;;;8.00;6.90;;;;;;;6.41;85.81;98854.16;112620;1191;61765;-70
2021/11/08 01:02:54;;;;;;;10.30;7.70;;;;;;;6.45;85.98;98860.88;112942;1190;65456;-72
2021/11/08 01:05:20;;;;;;;10.00;6.90;;;;;;;6.46;85.95;98862.57;112864;1190;60527;-70
2021/11/08 01:07:47;;;;;;;9.50;7.10;;;;;;;6.47;86.00;98861.48;112890;1189;60214;-72
2021/11/08 01:10:17;;;;;;;8.40;7.00;;;;;;;6.48;85.98;98862.66;112846;1189;66630;-71
2021/11/08 01:12:44;;;;;;;8.80;6.60;;;;;;;6.48;86.10;98864.07;112859;1189;61578;-70
2021/11/08 01:15:11;;;;;;;7.80;7.00;;;;;;;6.49;86.16;98867.36;112845;1190;65491;-70
2021/11/08 01:17:38;;;;;;;9.50;7.60;;;;;;;6.51;86.08;98873.25;112902;1189;60240;-71
2021/11/08 01:20:07;;;;;;;8.90;8.00;;;;;;;6.53;86.18;98873.34;112864;1189;60240;-71
2021/11/08 01:22:35;;;;;;;10.10;7.70;;;;;;;6.55;86.25;98874.27;112636;1190;66537;-71
2021/11/08 01:25:04;;;;;;;9.00;7.60;;;;;;;6.54;86.24;98871.34;112998;1189;61038;-72
2021/11/08 01:27:40;;;;;;;8.50;7.60;;;;;;;6.50;86.32;98876.30;112866;1189;64480;-72
2021/11/08 01:30:12;;;;;;;7.80;7.00;;;;;;;6.47;86.30;98877.72;112538;1190;60265;-73
2021/11/08 01:32:53;;;;;;;8.50;6.70;;;;;;;6.43;86.46;98873.48;112625;1189;60408;-71
2021/11/08 01:35:28;;;;;;;7.60;6.40;;;;;;;6.44;86.67;98877.69;112757;1189;75597;-71
2021/11/08 01:38:05;;;;;;;7.40;6.60;;;;;;;6.44;86.65;98881.90;112741;1190;61412;-71
2021/11/08 01:40:33;;;;;;;6.50;5.40;;;;;;;6.46;86.54;98882.85;112883;1190;65480;-71
2021/11/08 01:43:00;;;;;;;7.40;6.50;;;;;;;6.47;86.64;98884.58;112861;1189;60569;-71
2021/11/08 01:45:27;;;;;;;7.70;6.70;;;;;;;6.47;86.59;98883.18;112894;1190;60185;-71
2021/11/08 01:47:54;;;;;;;7.30;6.60;;;;;;;6.47;86.55;98890.41;112567;1191;66637;-71
2021/11/08 01:50:21;;;;;;;8.20;6.70;;;;;;;6.47;86.62;98892.17;112873;1189;61522;-70
2021/11/08 01:52:49;;;;;;;7.80;6.30;;;;;;;6.49;86.56;98893.30;112877;1190;64415;-72
2021/11/08 01:55:16;;;;;;;7.00;6.30;;;;;;;6.52;86.56;98890.13;112865;1190;60214;-70
2021/11/08 01:57:43;;;;;;;8.50;6.40;;;;;;;6.55;86.54;98889.97;112873;1190;60231;-71
2021/11/08 02:00:12;;;;;;;7.00;6.40;;;;;;;6.57;86.56;98894.30;112897;1190;66713;-71
2021/11/08 02:02:38;;;;;;;7.50;6.70;;;;;;;6.60;86.66;98896.79;112631;1191;61419;-71
2021/11/08 02:05:05;;;;;;;7.20;6.50;;;;;;;6.60;86.53;98899.58;112888;1189;64440;-70
2021/11/08 02:07:32;;;;;;;7.30;6.60;;;;;;;6.59;86.61;98904.95;112875;1189;60242;-70
2021/11/08 02:09:59;;;;;;;9.00;6.50;;;;;;;6.55;86.59;98905.14;112898;1180;60167;-71
2021/11/08 02:12:27;;;;;;;7.10;6.50;;;;;;;6.51;86.63;98907.12;112875;1189;66588;-71
2021/11/08 02:14:54;;;;;;;7.30;6.60;;;;;;;6.46;86.66;98908.29;112870;1190;60194;-70
2021/11/08 02:17:21;;;;;;;8.00;6.50;;;;;;;6.41;86.77;98911.02;112894;1190;65479;-70
2021/11/08 02:19:47;;;;;;;7.70;6.90;;;;;;;6.36;86.80;98912.69;112881;1190;60268;-71
2021/11/08 02:22:14;;;;;;;7.90;6.50;;;;;;;6.31;86.93;98914.34;112841;1189;60162;-71
2021/11/08 02:24:42;;;;;;;7.60;6.80;;;;;;;6.27;86.98;98911.90;112866;1190;66565;-71
2021/11/08 02:27:09;;;;;;;7.90;7.10;;;;;;;6.25;87.16;98914.84;112867;1190;61398;-70
2021/11/08 02:29:36;;;;;;;9.10;8.30;;;;;;;6.24;87.19;98912.23;112883;1190;65506;-70
2021/11/08 02:32:04;;;;;;;8.10;6.30;;;;;;;6.22;87.31;98921.67;112906;1190;60255;-70
2021/11/08 02:34:30;;;;;;;6.70;6.00;;;;;;;6.20;87.31;98923.89;112908;1190;60228;-71
2021/11/08 02:36:57;;;;;;;8.80;6.70;;;;;;;6.21;87.32;98926.86;112854;1190;65601;-71
2021/11/08 02:39:58;;;;;;;6.40;5.80;;;;;;;6.22;87.41;98925.23;112771;1189;61450;-71
2021/11/08 02:42:17;;;;;;;7.30;6.30;;;;;;;6.25;87.51;98922.96;112908;1189;65477;-71
2021/11/08 02:44:43;;;;;;;8.70;6.50;;;;;;;6.29;87.64;98921.51;112951;1189;60265;-71
2021/11/08 02:47:11;;;;;;;10.10;7.20;;;;;;;6.32;87.68;98923.31;112904;1191;60236;-70
2021/11/08 02:49:42;;;;;;;7.80;7.00;;;;;;;6.34;87.61;98920.69;112883;1190;66646;-71
2021/11/08 02:52:11;;;;;;;7.70;6.90;;;;;;;6.37;87.69;98920.58;112905;1189;60562;-70
2021/11/08 02:54:45;;;;;;;7.30;6.00;;;;;;;6.42;87.76;98921.94;112895;1188;65458;-70
2021/11/08 02:57:12;;;;;;;9.00;6.50;;;;;;;6.48;87.74;98927.44;112815;1190;60162;-71
2021/11/08 02:59:39;;;;;;;11.20;7.10;;;;;;;6.53;87.57;98929.80;112658;1191;60394;-71
2021/11/08 03:02:08;;;;;;;8.10;6.30;;;;;;;6.57;87.65;98929.77;112610;1192;66608;-70
2021/11/08 03:04:42;;;;;;;6.50;5.80;;;;;;;6.59;87.51;98928.61;113062;1189;61321;-71
2021/11/08 03:07:10;;;;;;;8.90;6.80;;;;;;;6.63;87.39;98930.56;112422;1174;64124;-73
2021/11/08 03:09:45;;;;;;;6.30;5.50;;;;;;;6.66;87.37;98927.92;112901;1190;60160;-71
2021/11/08 03:12:18;;;;;;;7.60;5.40;;;;;;;6.69;87.34;98929.89;112880;1189;60217;-70
2021/11/08 03:14:58;;;;;;;7.60;6.70;;;;;;;6.71;87.30;98932.58;112933;1189;65583;-71
2021/11/08 03:17:30;;;;;;;7.30;5.70;;;;;;;6.72;87.26;98931.09;112940;1190;60312;-70
2021/11/08 03:19:57;;;;;;;6.50;5.90;;;;;;;6.73;87.18;98934.74;112875;1189;65525;-71
2021/11/08 03:22:29;;;;;;;8.60;6.70;;;;;;;6.73;87.12;98938.68;112851;1189;60223;-71
2021/11/08 03:25:00;;;;;;;7.60;6.80;;;;;;;6.71;87.08;98939.62;112538;1190;60412;-71
2021/11/08 03:30:15;;;;;;;8.50;6.20;;;;;;;6.72;87.07;98938.90;112880;1190;60591;-71
2021/11/08 03:32:45;;;;;;;9.30;6.30;;;;;;;6.73;87.12;98938.81;112905;1189;64323;-70
2021/11/08 03:35:14;;;;;;;7.80;6.90;;;;;;;6.75;86.98;98937.48;112665;1191;60147;-70
2021/11/08 03:37:42;;;;;;;9.60;7.30;;;;;;;6.77;86.88;98938.97;112951;1189;60130;-70
2021/11/08 03:40:19;;;;;;;7.50;6.60;;;;;;;6.78;86.84;98936.08;112788;1190;66588;-71
2021/11/08 03:42:51;;;;;;;8.80;7.50;;;;;;;6.78;86.87;98940.52;112862;1189;61495;-70
2021/11/08 03:45:18;;;;;;;7.60;6.50;;;;;;;6.77;86.77;98947.27;112889;1190;65434;-70
2021/11/08 03:47:45;;;;;;;7.40;6.30;;;;;;;6.77;86.78;98950.98;112869;1190;60239;-70
2021/11/08 03:50:13;;;;;;;7.90;6.00;;;;;;;6.79;86.73;98949.13;112598;1190;60249;-69
2021/11/08 03:52:40;;;;;;;9.30;6.10;;;;;;;6.80;86.66;98952.23;112907;1189;66617;-71
2021/11/08 03:55:10;;;;;;;7.70;6.20;;;;;;;6.80;86.63;98952.40;112889;1189;60219;-71
2021/11/08 03:57:37;;;;;;;9.30;7.80;;;;;;;6.79;86.53;98953.33;112947;1190;63983;-70
2021/11/08 04:00:06;;;;;;;9.60;8.00;;;;;;;6.77;86.42;98952.04;112905;1189;60252;-70
2021/11/08 04:02:33;;;;;;;15.90;9.10;;;;;;;6.74;86.52;98956.05;112880;1189;60191;-71
2021/11/08 04:05:05;;;;;;;7.60;6.80;;;;;;;6.71;86.42;98962.09;112865;1189;66679;-70
2021/11/08 04:07:32;;;;;;;9.00;7.00;;;;;;;6.67;86.46;98965.10;112963;1190;61303;-71
2021/11/08 04:09:59;;;;;;;7.90;6.80;;;;;;;6.65;86.31;98967.34;112848;1190;65426;-71
2021/11/08 04:12:28;;;;;;;9.20;7.40;;;;;;;6.60;86.45;98966.52;112915;1190;60648;-72
2021/11/08 04:14:56;;;;;;;9.10;7.60;;;;;;;6.54;86.45;98966.27;112960;1189;60217;-71
2021/11/08 04:17:25;;;;;;;9.70;8.70;;;;;;;6.47;86.56;98966.64;112953;1190;65175;-71
2021/11/08 04:19:52;;;;;;;8.40;7.60;;;;;;;6.38;86.52;98966.38;112879;1189;61413;-71
2021/11/08 04:22:20;;;;;;;9.90;8.20;;;;;;;6.29;86.57;98967.56;112934;1190;65233;-71
2021/11/08 04:24:47;;;;;;;9.60;8.40;;;;;;;6.16;86.63;98966.24;112886;1190;60210;-70
2021/11/08 04:27:15;;;;;;;12.00;9.30;;;;;;;6.02;86.66;98966.25;112900;1188;60220;-71
2021/11/08 04:29:42;;;;;;;12.00;9.20;;;;;;;5.90;86.80;98960.11;112923;1190;65780;-70
2021/11/08 04:32:09;;;;;;;14.50;10.90;;;;;;;5.81;87.08;98958.75;112886;1189;61412;-70
2021/11/08 04:40:28;;;;;;;43.50;27.20;;;;;;;5.58;87.52;98969.54;112276;1193;60383;-71
2021/11/08 04:43:45;;;;;;;43.00;29.10;;;;;;;5.54;87.62;98969.02;112332;1193;67178;-69
2021/11/08 04:48:51;;;;;;;33.10;23.50;;;;;;;5.45;87.99;98972.80;112316;1193;64069;-71
2021/11/08 05:21:34;;;;;;;15.70;10.00;;;;;;;5.81;88.14;98997.89;113052;1188;60162;-71
2021/11/08 05:31:46;;;;;;;17.00;11.80;;;;;;;5.93;88.21;99001.73;113077;1190;60264;-72
2021/11/08 05:34:14;;;;;;;13.80;11.40;;;;;;;5.93;88.09;99004.56;112547;1190;60315;-71
2021/11/08 05:36:42;;;;;;;13.40;11.30;;;;;;;5.93;88.03;99015.33;112933;1189;66369;-71
2021/11/08 05:39:10;;;;;;;13.20;10.60;;;;;;;5.92;87.95;99014.28;112875;1190;60466;-70
2021/11/08 05:41:39;;;;;;;15.20;11.40;;;;;;;5.92;87.91;99018.70;112945;1190;63989;-72
2021/11/08 05:44:07;;;;;;;12.20;10.40;;;;;;;5.92;88.05;99021.34;112895;1190;60229;-70
2021/11/08 05:46:35;;;;;;;11.30;9.20;;;;;;;5.92;87.95;99024.86;112625;1189;60230;-71
2021/11/08 05:49:03;;;;;;;13.00;8.90;;;;;;;5.91;87.94;99029.64;112948;1188;67094;-71
2021/11/08 05:51:30;;;;;;;13.20;9.70;;;;;;;5.92;87.93;99035.45;112689;1192;60399;-71
2021/11/08 05:53:56;;;;;;;12.40;9.70;;;;;;;5.92;87.94;99034.55;112924;1190;64382;-71
2021/11/08 05:56:35;;;;;;;12.20;9.60;;;;;;;5.93;87.89;99038.23;112877;1190;60229;-71
2021/11/08 06:51:00;;;;;;;12.30;7.80;;;;;;;6.24;87.39;99121.13;112912;1189;60249;-70
2021/11/08 06:53:30;;;;;;;9.90;8.90;;;;;;;6.28;87.27;99123.21;112870;1188;60239;-70
2021/11/08 06:55:58;;;;;;;15.80;9.90;;;;;;;6.34;87.29;99125.04;112805;1190;66535;-69
2021/11/08 06:58:27;;;;;;;13.20;10.50;;;;;;;6.43;87.14;99124.09;112936;1189;61431;-72
2021/11/08 07:00:55;;;;;;;12.40;9.70;;;;;;;6.50;86.99;99126.60;112797;1189;64520;-71
2021/11/08 07:03:22;;;;;;;14.60;8.90;;;;;;;6.54;86.85;99133.10;112702;1189;60345;-70
2021/11/08 07:05:50;;;;;;;11.60;8.60;;;;;;;6.56;86.71;99136.50;112671;1189;62543;-71
2021/11/08 07:08:16;;;;;;;12.90;8.30;;;;;;;6.64;86.72;99137.20;112513;1180;65792;-70
2021/11/08 07:10:43;;;;;;;13.60;9.60;;;;;;;6.72;86.57;99144.41;112838;1190;62320;-69
2021/11/08 07:13:10;;;;;;;15.80;10.00;;;;;;;6.81;86.27;99148.04;112754;1190;64965;-71
2021/11/08 07:15:36;;;;;;;15.30;10.50;;;;;;;6.87;86.36;99143.30;112863;1189;60254;-70
2021/11/08 07:18:03;;;;;;;13.80;10.30;;;;;;;6.95;86.29;99139.37;112890;1190;60178;-71
2021/11/08 07:20:31;;;;;;;13.60;10.90;;;;;;;7.05;86.22;99140.67;112898;1189;65578;-70
2021/11/08 07:22:58;;;;;;;17.90;13.50;;;;;;;7.15;86.05;99145.08;112912;1190;60445;-74
2021/11/08 07:25:25;;;;;;;17.60;13.20;;;;;;;7.27;85.85;99142.21;112934;1189;63863;-73
2021/11/08 07:27:52;;;;;;;18.70;13.10;;;;;;;7.36;85.41;99142.08;113021;1189;60236;-73
2021/11/08 07:30:23;;;;;;;16.80;12.00;;;;;;;7.45;85.24;99148.52;112897;1189;60281;-71
2021/11/08 07:32:50;;;;;;;16.40;12.50;;;;;;;7.52;84.78;99146.39;113020;1190;65722;-71
2021/11/08 07:35:17;;;;;;;17.50;11.70;;;;;;;7.60;84.74;99148.27;112612;1190;60637;-72
2021/11/08 07:37:44;;;;;;;17.60;11.70;;;;;;;7.66;84.63;99145.11;112869;1189;63997;-72
2021/11/08 07:40:11;;;;;;;12.30;9.80;;;;;;;7.76;84.50;99148.86;112585;1190;60316;-72
2021/11/08 07:42:38;;;;;;;14.00;9.80;;;;;;;7.88;84.23;99152.10;112908;1189;60969;-69
2021/11/08 07:45:05;;;;;;;14.80;9.30;;;;;;;7.97;83.80;99160.30;112934;1189;65091;-71
2021/11/08 07:47:32;;;;;;;13.20;8.80;;;;;;;8.03;83.55;99161.55;112961;1189;61438;-71
2021/11/08 07:49:58;;;;;;;19.90;9.30;;;;;;;8.08;83.22;99162.50;112960;1190;64452;-71
2021/11/08 07:52:25;;;;;;;31.30;9.60;;;;;;;8.15;83.14;99162.48;112905;1190;60253;-72
2021/11/08 07:54:52;;;;;;;25.40;9.50;;;;;;;8.22;83.05;99164.80;113029;1189;60162;-74
2021/11/08 07:57:19;;;;;;;48.20;11.20;;;;;;;8.28;82.84;99168.01;113097;1189;65675;-75
2021/11/08 07:59:45;;;;;;;10.60;6.80;;;;;;;8.33;82.30;99171.59;112982;1190;61395;-75
2021/11/08 08:02:12;;;;;;;12.20;7.50;;;;;;;8.35;81.72;99167.74;112992;1189;64582;-74
2021/11/08 08:04:39;;;;;;;18.20;10.60;;;;;;;8.35;81.53;99170.60;113026;1189;60261;-74
2021/11/08 08:07:06;;;;;;;15.30;9.20;;;;;;;8.37;81.50;99172.63;112953;1189;60239;-74
2021/11/08 08:09:35;;;;;;;14.80;9.20;;;;;;;8.42;81.44;99176.97;113025;1189;65258;-76
2021/11/08 08:12:01;;;;;;;12.70;8.40;;;;;;;8.49;81.21;99180.86;112759;1190;61347;-76
2021/11/08 08:14:28;;;;;;;8.80;7.00;;;;;;;8.52;80.96;99176.40;112717;1184;62763;-77
2021/11/08 08:16:55;;;;;;;16.50;7.80;;;;;;;8.57;80.89;99172.61;112985;1190;60169;-76
2021/11/08 08:19:22;;;;;;;13.80;8.30;;;;;;;8.64;80.83;99173.28;112981;1190;60293;-77
2021/11/08 08:21:49;;;;;;;12.30;7.00;;;;;;;8.71;80.88;99176.40;112951;1190;66572;-77
2021/11/08 08:24:16;;;;;;;11.10;7.30;;;;;;;8.80;80.67;99180.20;112712;1190;60460;-76
2021/11/08 08:26:43;;;;;;;13.60;7.30;;;;;;;8.86;80.54;99179.83;112894;1190;65011;-74
2021/11/08 08:29:12;;;;;;;15.40;10.30;;;;;;;8.90;80.34;99188.31;112846;1190;60185;-73
2021/11/08 08:31:45;;;;;;;12.60;8.50;;;;;;;8.95;80.35;99194.94;113021;1190;60233;-73
2021/11/08 08:34:14;;;;;;;19.20;11.00;;;;;;;9.03;80.06;99190.91;112893;1190;65300;-75
2021/11/08 08:36:41;;;;;;;16.10;10.40;;;;;;;9.08;79.95;99197.55;112865;1190;60483;-73
2021/11/08 08:39:09;;;;;;;18.90;11.50;;;;;;;9.11;79.87;99202.17;112844;1190;65326;-74
2021/11/08 08:41:37;;;;;;;16.90;10.70;;;;;;;9.14;79.70;99206.95;112859;1189;60165;-77
2021/11/08 08:44:07;;;;;;;24.50;12.00;;;;;;;9.16;79.55;99206.83;112902;1190;60168;-74
2021/11/08 08:46:34;;;;;;;17.90;11.70;;;;;;;9.16;79.29;99209.98;112877;1190;65700;-71
2021/11/08 08:49:03;;;;;;;17.70;10.80;;;;;;;9.16;79.19;99207.70;112771;1190;61538;-71
2021/11/08 08:51:29;;;;;;;21.80;13.10;;;;;;;9.20;79.38;99213.50;112987;1189;64503;-71
2021/11/08 08:53:56;;;;;;;19.20;10.90;;;;;;;9.29;79.39;99217.24;112826;1189;60354;-69
2021/11/08 08:56:23;;;;;;;15.80;9.70;;;;;;;9.35;79.03;99217.95;112833;1190;60181;-71
2021/11/08 08:58:51;;;;;;;15.10;9.20;;;;;;;9.37;78.58;99218.01;112721;1190;67109;-70
2021/11/08 09:01:19;;;;;;;12.70;8.80;;;;;;;9.37;78.32;99218.20;112720;1190;60469;-70
2021/11/08 09:03:46;;;;;;;17.10;8.10;;;;;;;9.35;77.98;99215.83;112726;1190;64451;-71
2021/11/08 09:06:14;;;;;;;10.80;7.20;;;;;;;9.32;77.94;99214.98;112673;1190;60146;-70
2021/11/08 09:08:41;;;;;;;12.10;7.70;;;;;;;9.32;77.97;99219.00;112854;1189;60242;-70
2021/11/08 09:11:09;;;;;;;11.20;7.10;;;;;;;9.39;78.15;99218.05;112882;1189;65835;-72
2021/11/08 09:13:37;;;;;;;14.60;8.60;;;;;;;9.48;78.09;99219.84;113004;1190;60098;-71
2021/11/08 09:16:11;;;;;;;14.20;9.10;;;;;;;9.48;77.88;99222.33;112944;1189;64418;-71
2021/11/08 09:18:44;;;;;;;26.10;15.90;;;;;;;9.49;77.60;99221.06;112910;1190;60114;-77
2021/11/08 09:21:12;;;;;;;37.20;22.60;;;;;;;9.54;77.65;99225.86;112881;1190;60184;-72
2021/11/08 09:23:40;;;;;;;25.40;16.20;;;;;;;9.66;77.60;99225.52;112946;1189;65432;-74
2021/11/08 09:26:08;;;;;;;28.70;18.60;;;;;;;9.78;77.14;99225.00;112863;1189;61467;-74
2021/11/08 09:28:36;;;;;;;19.30;12.70;;;;;;;9.87;76.66;99226.59;112854;1190;65433;-73
2021/11/08 09:31:04;;;;;;;15.60;8.90;;;;;;;9.93;76.50;99230.32;113065;1190;60249;-74
2021/11/08 09:33:31;;;;;;;15.10;8.50;;;;;;;9.98;76.45;99236.02;112858;1189;60165;-75
2021/11/08 09:36:05;;;;;;;13.70;7.10;;;;;;;10.01;75.70;99239.59;112882;1190;66450;-73
2021/11/08 09:38:38;;;;;;;11.50;7.10;;;;;;;10.02;75.64;99243.58;112800;1190;60540;-73
2021/11/08 09:41:11;;;;;;;13.30;8.30;;;;;;;10.04;75.13;99248.82;112901;1189;64451;-72
2021/11/08 09:43:40;;;;;;;13.50;9.20;;;;;;;10.06;75.38;99250.11;112739;1190;60279;-73
2021/11/08 09:46:06;;;;;;;15.60;10.30;;;;;;;10.13;75.34;99250.60;112901;1190;60159;-75
2021/11/08 09:48:38;;;;;;;54.60;27.60;;;;;;;10.14;74.85;99251.38;112938;1189;66186;-73
2021/11/08 09:51:07;;;;;;;41.80;23.40;;;;;;;10.11;75.04;99248.02;112589;1190;61660;-75
2021/11/08 09:53:34;;;;;;;22.70;13.60;;;;;;;10.10;74.77;99247.05;112897;1189;65341;-74
2021/11/08 09:56:04;;;;;;;19.80;11.70;;;;;;;10.05;74.42;99246.60;112902;1189;60153;-74
2021/11/08 09:58:33;;;;;;;16.60;9.10;;;;;;;10.00;74.42;99246.39;112894;1190;60216;-73
2021/11/08 10:01:07;;;;;;;15.80;8.80;;;;;;;9.97;74.47;99248.17;112808;1190;66974;-73
2021/11/08 10:03:34;;;;;;;16.10;8.30;;;;;;;9.95;74.52;99256.44;112666;1184;60455;-73
2021/11/08 10:06:01;;;;;;;12.70;7.40;;;;;;;9.93;74.14;99257.84;112913;1174;65023;-73
2021/11/08 10:08:33;;;;;;;16.10;9.70;;;;;;;9.92;74.36;99258.79;112893;1190;60248;-74
2021/11/08 10:11:04;;;;;;;18.70;9.70;;;;;;;9.97;74.13;99255.84;112920;1189;60159;-72
2021/11/08 10:13:32;;;;;;;14.60;7.80;;;;;;;10.03;73.81;99254.73;112733;1190;66614;-73
2021/11/08 10:16:02;;;;;;;19.00;9.80;;;;;;;10.13;73.68;99251.65;112926;1190;60245;-74
2021/11/08 10:18:30;;;;;;;12.10;7.60;;;;;;;10.30;73.73;99251.35;112944;1189;65466;-73
2021/11/08 10:21:30;;;;;;;13.40;6.60;;;;;;;10.44;73.40;99245.33;112916;1189;60175;-74
2021/11/08 10:23:58;;;;;;;;;;;;;;;10.50;72.58;99245.98;112685;1190;60182;-75
2021/11/08 10:26:33;;;;;;;14.10;7.60;;;;;;;10.52;72.79;99246.73;113081;1190;66166;-74
2021/11/08 10:29:15;;;;;;;15.60;8.00;;;;;;;10.60;72.79;99247.16;113034;1189;60546;-73
2021/11/08 10:31:52;;;;;;;11.60;6.50;;;;;;;10.71;72.64;99245.21;113102;1189;64414;-73
2021/11/08 10:34:20;;;;;;;14.30;7.50;;;;;;;10.81;72.25;99243.91;113087;1190;60161;-74
2021/11/08 10:37:06;;;;;;;9.00;6.70;;;;;;;10.83;71.59;99242.84;113074;1190;60207;-74
2021/11/08 10:39:37;;;;;;;11.30;6.00;;;;;;;10.83;71.48;99243.39;113042;1189;65254;-75
2021/11/08 10:42:05;;;;;;;11.10;7.10;;;;;;;10.83;71.30;99240.36;112980;1189;60393;-73
2021/11/08 10:44:33;;;;;;;12.00;7.10;;;;;;;10.86;71.74;99241.21;113114;1190;64428;-74
2021/11/08 10:47:02;;;;;;;7.10;3.80;;;;;;;10.91;71.02;99240.41;113194;1190;60319;-75
2021/11/08 10:49:35;;;;;;;8.60;4.90;;;;;;;10.88;70.25;99241.13;113054;1189;60562;-75
2021/11/08 10:52:03;;;;;;;9.80;5.90;;;;;;;10.85;70.55;99241.14;113336;1189;66565;-73
2021/11/08 10:54:50;;;;;;;5.40;4.10;;;;;;;10.84;70.29;99235.90;113305;1189;60408;-73
2021/11/08 10:57:20;;;;;;;6.20;3.50;;;;;;;10.83;69.74;99232.52;113578;1189;64514;-74
2021/11/08 10:59:48;;;;;;;;;;;;;;;10.79;69.04;99235.52;113660;1189;60229;-74
2021/11/08 11:02:22;;;;;;;7.00;3.10;;;;;;;10.71;69.02;99237.38;114000;1189;59116;-73
2021/11/08 11:04:56;;;;;;;8.40;4.30;;;;;;;10.68;69.19;99231.94;113813;1189;65523;-73
2021/11/08 11:07:32;;;;;;;7.60;3.90;;;;;;;10.71;68.99;99228.35;115873;1189;61389;-74
2021/11/08 11:10:11;;;;;;;6.80;3.70;;;;;;;10.72;68.21;99230.40;116005;1190;64533;-72
2021/11/08 11:12:47;;;;;;;5.90;3.20;;;;;;;10.74;68.76;99231.86;115456;1189;58007;-74
2021/11/08 11:15:25;;;;;;;6.20;3.90;;;;;;;10.84;68.53;99227.18;114555;1189;60185;-74
2021/11/08 11:17:58;;;;;;;7.30;4.20;;;;;;;10.92;68.56;99224.50;112780;1192;65523;-75
2021/11/08 11:20:30;;;;;;;5.30;3.10;;;;;;;10.96;68.22;99225.46;113005;1190;61113;-76
2021/11/08 11:23:04;;;;;;;7.50;3.90;;;;;;;10.89;67.76;99227.73;112922;1189;65502;-74
2021/11/08 11:25:36;;;;;;;26.20;13.10;;;;;;;10.74;68.09;99231.89;112930;1189;60155;-73
2021/11/08 11:28:05;;;;;;;59.80;39.50;;;;;;;10.61;68.12;99234.50;112908;1190;60302;-77
2021/11/08 11:30:37;;;;;;;24.40;18.60;;;;;;;10.50;68.22;99236.06;112884;1190;63979;-73
2021/11/08 11:33:12;;;;;;;8.30;5.70;;;;;;;10.40;67.51;99237.08;112900;1189;61585;-74
2021/11/08 11:35:44;;;;;;;7.60;4.10;;;;;;;10.28;67.61;99236.70;112939;1189;65597;-73
2021/11/08 11:38:15;;;;;;;4.40;2.60;;;;;;;10.20;67.60;99236.47;112910;1189;60252;-74
2021/11/08 11:40:51;;;;;;;4.40;2.50;;;;;;;10.15;67.92;99237.83;113017;1189;60551;-73
2021/11/08 11:43:18;;;;;;;5.30;2.50;;;;;;;10.08;66.86;99235.78;112900;1190;65642;-74
2021/11/08 11:45:50;;;;;;;3.20;2.00;;;;;;;10.00;67.27;99240.17;112929;1189;61433;-75
2021/11/08 11:48:20;;;;;;;5.60;3.70;;;;;;;9.96;67.50;99233.52;112889;1190;65569;-74
2021/11/08 11:50:46;;;;;;;5.80;2.80;;;;;;;9.95;67.55;99231.40;112721;1189;60553;-73
2021/11/08 11:53:13;;;;;;;5.10;2.70;;;;;;;10.00;67.58;99231.52;112928;1180;60221;-74
2021/11/08 11:55:41;;;;;;;12.70;6.70;;;;;;;10.04;67.53;99232.09;112934;1189;66143;-74
2021/11/08 11:58:08;;;;;;;5.60;3.00;;;;;;;10.07;67.43;99231.20;112963;1188;61405;-74
2021/11/08 12:00:38;;;;;;;10.30;4.90;;;;;;;10.10;67.52;99233.15;113020;1189;64009;-74
2021/11/08 12:03:05;;;;;;;5.40;3.70;;;;;;;10.17;67.73;99239.17;112944;1189;60191;-75
2021/11/08 12:05:34;;;;;;;9.10;5.80;;;;;;;10.19;67.72;99239.37;112660;1193;60236;-74
2021/11/08 12:08:08;;;;;;;6.10;3.30;;;;;;;10.22;67.47;99232.79;113052;1189;66954;-74
2021/11/08 12:10:44;;;;;;;5.80;3.30;;;;;;;10.23;66.71;99231.31;112967;1190;61135;-74
2021/11/08 12:13:16;;;;;;;3.60;2.20;;;;;;;10.22;66.89;99232.43;113027;1189;66301;-73
2021/11/08 12:15:42;;;;;;;5.50;2.50;;;;;;;10.22;67.20;99232.98;112890;1190;60242;-74
2021/11/08 12:18:12;;;;;;;9.90;4.90;;;;;;;10.24;67.66;99234.82;112949;1189;60159;-74
2021/11/08 12:20:48;;;;;;;4.60;3.00;;;;;;;10.29;67.60;99235.02;113089;1189;66227;-74
2021/11/08 12:23:21;;;;;;;5.60;3.10;;;;;;;10.34;67.60;99233.53;112950;1189;60198;-73
2021/11/08 12:26:21;;;;;;;5.00;2.90;;;;;;;10.41;67.59;99228.09;99938;1340;600191;-76
2021/11/08 12:28:49;;;;;;;4.40;2.50;;;;;;;10.47;67.55;99224.71;101418;1330;60111;-76
2021/11/08 12:31:23;;;;;;;4.60;3.00;;;;;;;10.53;67.11;99225.04;102035;1323;62108;-74
2021/11/08 12:34:07;;;;;;;5.80;3.00;;;;;;;10.55;67.01;99226.17;101722;1323;73918;-74
2021/11/08 12:36:38;;;;;;;4.50;2.70;;;;;;;10.54;67.14;99224.95;101717;1323;70087;-74
2021/11/08 12:39:11;;;;;;;6.40;4.00;;;;;;;10.53;67.33;99225.22;101174;1324;295766;-74
2021/11/08 12:41:47;;;;;;;6.70;4.00;;;;;;;10.52;67.42;99228.65;101529;1323;59212;-75
2021/11/08 12:44:18;;;;;;;7.30;4.10;;;;;;;10.48;67.60;99229.23;101408;1323;61262;-74
2021/11/08 12:46:52;;;;;;;7.60;3.50;;;;;;;10.44;67.44;99228.79;101556;1323;74569;-75
2021/11/08 12:49:27;;;;;;;6.80;3.20;;;;;;;10.40;67.69;99227.85;101287;1323;69531;-74
2021/11/08 12:52:09;;;;;;;9.10;3.50;;;;;;;10.35;67.70;99230.95;101265;1323;73540;-75
2021/11/08 12:54:50;;;;;;;6.50;3.10;;;;;;;10.27;67.37;99229.31;101357;1323;59739;-74
2021/11/08 12:57:18;;;;;;;;;;;;;;;10.15;67.67;99235.02;101355;1323;62454;-74
2021/11/08 13:00:14;;;;;;;11.20;5.40;;;;;;;10.07;68.29;99234.79;101386;1326;73911;-75
2021/11/08 13:03:00;;;;;;;9.30;4.80;;;;;;;10.02;68.47;99236.66;100586;1332;70854;-74
2021/11/08 13:05:30;;;;;;;7.50;4.00;;;;;;;9.98;68.54;99238.02;100276;1333;72391;-74
2021/11/08 13:07:59;;;;;;;9.10;4.00;;;;;;;9.97;68.79;99235.57;100626;1335;59951;-73
2021/11/08 13:10:33;;;;;;;8.40;4.90;;;;;;;9.97;68.59;99239.69;100765;1332;61265;-74
2021/11/08 13:13:00;;;;;;;8.50;4.70;;;;;;;9.95;68.82;99240.80;100578;1335;72953;-74
2021/11/08 13:15:31;;;;;;;8.80;4.80;;;;;;;9.94;68.65;99240.70;100582;1331;68735;-74
2021/11/08 13:17:58;;;;;;;10.50;5.90;;;;;;;9.95;68.96;99240.48;100624;1332;73636;-75
2021/11/08 13:20:28;;;;;;;6.40;4.00;;;;;;;9.95;69.04;99232.67;100658;1332;59742;-76
2021/11/08 13:22:59;;;;;;;8.80;4.00;;;;;;;9.95;69.08;99235.14;101712;1325;60933;-73
2021/11/08 13:25:30;;;;;;;9.50;4.90;;;;;;;9.95;69.20;99235.49;101477;1325;75004;-74